Time;durP1;ratioP1;P1;durP2;ratioP2;P2;SDS_P1;SDS_P2;PMS_P1;PMS_P2;Temp;Humidity;BMP_temperature;BMP_pressure;BME280_temperature;BME280_humidity;BME280_pressure;Samples;Min_cycle;Max_cycle;Signal;HPM_P1;HPM_P2
2023/10/23 00:00:17;;;;;;;6.18;2.80;;;;;;;19.17;66.69;100224.50;5132694;27;20039;-64
2023/10/23 00:02:47;;;;;;;5.72;2.63;;;;;;;19.16;67.06;100223.63;5132520;27;20435;-64
2023/10/23 00:05:16;;;;;;;6.13;2.60;;;;;;;19.15;67.12;100221.09;5132702;27;20043;-64
2023/10/23 00:07:45;;;;;;;7.15;3.00;;;;;;;19.14;66.93;100227.50;5132591;27;20134;-64
2023/10/23 00:10:13;;;;;;;5.50;2.47;;;;;;;19.15;66.78;100221.09;5132463;27;20176;-63
2023/10/23 00:12:41;;;;;;;6.00;2.83;;;;;;;19.13;67.04;100223.94;5132546;27;20047;-63
2023/10/23 00:15:10;;;;;;;5.00;2.70;;;;;;;19.13;67.17;100223.09;5132317;27;20502;-63
2023/10/23 00:17:38;;;;;;;5.20;2.80;;;;;;;19.12;66.86;100222.25;5131136;28;20099;-64
2023/10/23 00:20:10;;;;;;;5.13;2.50;;;;;;;19.11;66.73;100227.81;5132382;27;20431;-63
2023/10/23 00:22:38;;;;;;;4.82;2.75;;;;;;;19.10;66.97;100224.22;5132421;27;20051;-63
2023/10/23 00:25:07;;;;;;;4.05;2.47;;;;;;;19.10;66.79;100226.91;5132362;27;20045;-63
2023/10/23 00:27:36;;;;;;;5.55;2.75;;;;;;;19.02;66.87;100209.78;5131902;27;20047;-63
2023/10/23 00:30:07;;;;;;;6.57;2.60;;;;;;;19.09;66.91;100213.56;5132512;27;20047;-63
2023/10/23 00:32:35;;;;;;;5.43;2.55;;;;;;;19.09;66.62;100213.56;5131162;28;20051;-63
2023/10/23 00:35:04;;;;;;;5.40;2.83;;;;;;;19.08;66.66;100214.56;5132320;27;20047;-65
2023/10/23 00:37:40;;;;;;;5.80;2.60;;;;;;;19.07;66.84;100218.28;5132314;27;20047;-63
2023/10/23 00:40:09;;;;;;;5.20;2.72;;;;;;;19.07;66.78;100220.97;5132166;27;20415;-63
2023/10/23 00:42:41;;;;;;;5.85;2.88;;;;;;;19.06;66.88;100219.28;5114163;28;20047;-63
2023/10/23 00:45:10;;;;;;;5.53;2.70;;;;;;;19.05;66.64;100220.28;5132210;27;20459;-63
2023/10/23 00:47:38;;;;;;;4.72;2.55;;;;;;;19.05;66.51;100221.13;5134045;27;20411;-63
2023/10/23 00:50:07;;;;;;;4.93;2.60;;;;;;;19.04;66.94;100223.97;5135988;27;20180;-63
2023/10/23 00:52:40;;;;;;;7.10;2.88;;;;;;;19.03;66.96;100219.56;5135817;27;20537;-63
2023/10/23 00:55:11;;;;;;;6.43;2.55;;;;;;;19.03;66.91;100223.13;5136143;27;20058;-62
2023/10/23 00:57:39;;;;;;;4.15;2.45;;;;;;;19.00;66.91;100217.16;5135972;27;20206;-63
2023/10/23 01:00:09;;;;;;;5.55;2.65;;;;;;;19.02;66.92;100225.97;5135796;27;20092;-63
2023/10/23 01:02:38;;;;;;;5.03;2.70;;;;;;;19.00;66.69;100228.81;5135689;27;20051;-63
2023/10/23 01:05:07;;;;;;;4.60;2.60;;;;;;;18.99;66.98;100226.25;5135526;27;20047;-63
2023/10/23 01:07:36;;;;;;;6.38;2.80;;;;;;;19.00;66.41;100226.09;5135997;27;20096;-63
2023/10/23 01:10:06;;;;;;;5.40;2.70;;;;;;;19.00;66.59;100223.41;5135474;27;20092;-64
2023/10/23 01:12:35;;;;;;;5.00;2.35;;;;;;;18.99;66.76;100218.16;5135638;27;20424;-63
2023/10/23 01:15:04;;;;;;;4.80;2.45;;;;;;;18.98;66.71;100219.16;5135390;27;20518;-64
2023/10/23 01:17:36;;;;;;;5.18;2.28;;;;;;;18.97;66.91;100212.03;5134247;27;20043;-64
2023/10/23 01:20:05;;;;;;;4.93;2.85;;;;;;;18.97;67.08;100217.44;5135206;27;20086;-64
2023/10/23 01:22:34;;;;;;;5.03;2.85;;;;;;;18.96;66.84;100221.16;5135288;27;20507;-63
2023/10/23 01:25:03;;;;;;;6.60;3.00;;;;;;;18.95;66.99;100220.31;5135211;27;20043;-63
2023/10/23 01:27:33;;;;;;;5.18;2.67;;;;;;;18.95;66.69;100222.16;5133572;27;20143;-63
2023/10/23 01:30:01;;;;;;;5.25;2.67;;;;;;;18.96;66.76;100231.97;5135208;27;20043;-64
2023/10/23 01:32:29;;;;;;;6.20;2.83;;;;;;;18.94;66.49;100224.00;5134879;27;20506;-63
2023/10/23 01:35:00;;;;;;;4.78;2.67;;;;;;;18.94;66.88;100240.22;5135213;27;20043;-64
2023/10/23 01:37:29;;;;;;;6.20;2.63;;;;;;;18.91;66.63;100228.84;5135048;27;20043;-64
2023/10/23 01:39:57;;;;;;;4.95;2.80;;;;;;;18.92;66.70;100231.41;5135070;27;20047;-64
2023/10/23 01:42:28;;;;;;;4.90;2.60;;;;;;;18.92;66.76;100230.56;5134416;27;20179;-64
2023/10/23 01:45:01;;;;;;;6.38;2.70;;;;;;;18.91;66.46;100234.25;5134674;27;20381;-64
2023/10/23 01:47:30;;;;;;;7.35;2.97;;;;;;;18.89;66.51;100231.69;5135077;27;20129;-64
2023/10/23 01:50:01;;;;;;;4.15;2.50;;;;;;;18.88;66.33;100230.84;5134873;27;20074;-63
2023/10/23 01:52:29;;;;;;;5.80;2.80;;;;;;;18.88;66.59;100230.84;5134759;27;20142;-64
2023/10/23 01:54:59;;;;;;;4.30;2.78;;;;;;;18.87;66.43;100229.13;5134713;27;20040;-64
2023/10/23 01:57:28;;;;;;;4.82;2.60;;;;;;;18.87;66.57;100234.53;5134386;27;20096;-63
2023/10/23 02:00:04;;;;;;;4.32;2.63;;;;;;;18.86;66.23;100232.00;5133148;27;20043;-63
2023/10/23 02:02:33;;;;;;;4.78;2.42;;;;;;;18.86;66.19;100230.13;5134452;27;20039;-64
2023/10/23 02:05:02;;;;;;;3.97;2.50;;;;;;;18.85;66.71;100220.34;5134344;27;20043;-64
2023/10/23 02:07:30;;;;;;;6.05;2.90;;;;;;;18.85;66.54;100224.88;5134455;27;20070;-64
2023/10/23 02:10:00;;;;;;;6.13;3.15;;;;;;;18.83;66.42;100222.34;5134393;27;20039;-64
2023/10/23 02:12:32;;;;;;;5.60;2.60;;;;;;;18.81;66.35;100218.91;5134217;27;20466;-63
2023/10/23 02:15:04;;;;;;;6.30;2.70;;;;;;;18.83;66.44;100222.34;5134415;27;20050;-63
2023/10/23 02:17:33;;;;;;;4.75;2.63;;;;;;;18.82;66.24;100220.63;5134080;27;20096;-64
2023/10/23 02:20:01;;;;;;;5.60;2.80;;;;;;;18.81;66.59;100218.91;5134204;27;20047;-64
2023/10/23 02:22:33;;;;;;;4.63;2.65;;;;;;;18.80;66.37;100221.75;5134100;27;20127;-64
2023/10/23 02:25:01;;;;;;;5.10;2.55;;;;;;;18.79;66.52;100225.47;5134080;27;20050;-64
2023/10/23 02:27:30;;;;;;;4.88;2.75;;;;;;;18.78;66.66;100224.59;5133800;27;20051;-64
2023/10/23 02:29:59;;;;;;;4.82;2.67;;;;;;;18.78;66.76;100226.47;5134040;27;20179;-64
2023/10/23 02:32:29;;;;;;;5.20;2.65;;;;;;;18.78;66.26;100229.16;5133812;27;20468;-64
2023/10/23 02:35:01;;;;;;;4.63;2.50;;;;;;;18.77;66.42;100232.88;5133951;27;20047;-63
2023/10/23 02:37:29;;;;;;;5.22;3.08;;;;;;;18.75;66.49;100230.31;5133658;27;20047;-63
2023/10/23 02:39:58;;;;;;;4.80;2.72;;;;;;;18.75;66.54;100230.31;5133985;27;20043;-63
2023/10/23 02:42:26;;;;;;;4.05;2.60;;;;;;;18.74;66.64;100234.00;5133898;27;20532;-63
2023/10/23 02:44:58;;;;;;;5.15;2.70;;;;;;;18.74;66.41;100236.72;5133639;27;20499;-64
2023/10/23 02:47:26;;;;;;;4.47;2.47;;;;;;;18.73;66.66;100237.72;5133681;27;20043;-64
2023/10/23 02:49:56;;;;;;;5.68;3.33;;;;;;;18.72;66.26;100241.41;5133536;27;20483;-64
2023/10/23 02:52:24;;;;;;;4.60;2.78;;;;;;;18.69;66.20;100238.97;5133488;27;20511;-64
2023/10/23 02:54:52;;;;;;;4.60;3.08;;;;;;;18.70;66.77;100235.28;5133701;27;20047;-63
2023/10/23 02:57:21;;;;;;;5.25;2.85;;;;;;;18.70;66.71;100234.44;5133507;27;20047;-63
2023/10/23 02:59:50;;;;;;;5.30;2.78;;;;;;;18.69;66.56;100241.69;5133573;27;20054;-64
2023/10/23 03:02:20;;;;;;;5.07;2.80;;;;;;;18.68;66.65;100239.97;5133294;27;20043;-63
2023/10/23 03:04:48;;;;;;;5.30;2.95;;;;;;;18.68;66.60;100239.97;5133537;27;20611;-63
2023/10/23 03:07:19;;;;;;;4.63;2.92;;;;;;;18.68;66.38;100239.13;5133127;27;20599;-64
2023/10/23 03:09:48;;;;;;;5.35;3.10;;;;;;;18.68;66.61;100244.53;5132664;27;20043;-64
2023/10/23 03:12:17;;;;;;;4.53;2.90;;;;;;;18.66;66.36;100246.53;5133132;27;20057;-63
2023/10/23 03:14:45;;;;;;;5.45;2.88;;;;;;;18.66;66.24;100244.69;5133059;27;20092;-63
2023/10/23 03:17:15;;;;;;;6.80;3.10;;;;;;;18.64;66.41;100249.34;5133026;27;20090;-63
2023/10/23 03:19:43;;;;;;;5.28;3.00;;;;;;;18.65;66.29;100250.25;5133258;27;20135;-63
2023/10/23 03:22:14;;;;;;;5.93;2.83;;;;;;;18.64;66.33;100243.09;5133024;27;20075;-64
2023/10/23 03:24:44;;;;;;;6.43;3.00;;;;;;;18.62;66.54;100248.63;5133043;27;20055;-63
2023/10/23 03:27:12;;;;;;;5.82;3.15;;;;;;;18.62;66.33;100245.91;5132824;27;20058;-64
2023/10/23 03:29:43;;;;;;;6.13;3.03;;;;;;;18.63;66.44;100246.81;5132803;27;20483;-64
2023/10/23 03:32:11;;;;;;;5.22;2.72;;;;;;;18.61;66.69;100255.03;5132962;27;20047;-64
2023/10/23 03:34:40;;;;;;;6.00;3.22;;;;;;;18.62;66.38;100259.44;5133008;27;20055;-63
2023/10/23 03:37:08;;;;;;;5.10;3.00;;;;;;;18.61;66.54;100260.44;5132839;27;20145;-64
2023/10/23 03:39:37;;;;;;;4.72;2.90;;;;;;;18.59;66.60;100251.63;5132809;27;20050;-63
2023/10/23 03:42:09;;;;;;;5.57;2.90;;;;;;;18.59;66.26;100262.44;5132691;27;20057;-63
2023/10/23 03:44:38;;;;;;;5.75;2.97;;;;;;;18.58;66.65;100260.72;5132985;27;20075;-63
2023/10/23 03:47:08;;;;;;;4.40;2.75;;;;;;;18.58;66.40;100258.03;5132633;27;20047;-63
2023/10/23 03:49:36;;;;;;;5.78;3.00;;;;;;;18.56;66.44;100260.03;5132810;27;20047;-63
2023/10/23 03:52:05;;;;;;;6.28;3.25;;;;;;;18.55;66.39;100255.63;5132658;27;20043;-64
2023/10/23 03:54:33;;;;;;;5.03;3.00;;;;;;;18.56;66.13;100268.13;5132553;27;20187;-64
2023/10/23 03:57:02;;;;;;;4.97;2.90;;;;;;;18.55;66.04;100261.88;5132559;27;20573;-64
2023/10/23 03:59:42;;;;;;;5.70;3.30;;;;;;;18.55;66.07;100266.41;5132756;27;20416;-64
2023/10/23 04:02:10;;;;;;;5.10;3.10;;;;;;;18.53;66.49;100253.06;5132634;27;20765;-64
2023/10/23 04:04:39;;;;;;;5.60;3.00;;;;;;;18.53;66.60;100260.31;5132604;27;20510;-64
2023/10/23 04:07:08;;;;;;;5.63;2.97;;;;;;;18.53;66.42;100257.63;5132447;27;20271;-64
2023/10/23 04:09:36;;;;;;;4.53;2.83;;;;;;;18.52;66.33;100266.69;5132496;27;20067;-64
2023/10/23 04:12:06;;;;;;;5.10;3.00;;;;;;;18.52;66.13;100272.09;5132673;27;20134;-64
2023/10/23 04:14:36;;;;;;;5.57;3.30;;;;;;;18.51;66.36;100273.09;5132570;27;20054;-64
2023/10/23 04:17:04;;;;;;;5.43;2.88;;;;;;;18.50;66.24;100276.78;5132425;27;20605;-64
2023/10/23 04:19:32;;;;;;;6.82;3.25;;;;;;;18.50;66.24;100279.50;5132422;27;20040;-64
2023/10/23 04:22:02;;;;;;;5.05;3.00;;;;;;;18.48;65.97;100287.72;5135072;27;20399;-64
2023/10/23 04:24:31;;;;;;;4.85;2.63;;;;;;;18.49;66.14;100294.00;5136527;27;20043;-64
2023/10/23 04:27:03;;;;;;;5.25;2.88;;;;;;;18.48;66.24;100298.53;5136369;27;20062;-64
2023/10/23 04:29:32;;;;;;;5.15;3.03;;;;;;;18.47;66.37;100307.63;5136365;27;20058;-64
2023/10/23 04:32:01;;;;;;;5.50;3.00;;;;;;;18.47;66.32;100295.97;5136361;27;20040;-64
2023/10/23 04:34:30;;;;;;;4.75;3.00;;;;;;;18.39;66.33;100276.94;5117725;27;20047;-64
2023/10/23 04:36:58;;;;;;;5.40;2.72;;;;;;;18.46;66.27;100291.59;5136262;27;20498;-64
2023/10/23 04:39:30;;;;;;;5.45;3.20;;;;;;;18.46;66.45;100299.69;5136297;27;20051;-64
2023/10/23 04:41:58;;;;;;;5.15;2.75;;;;;;;18.43;66.25;100295.44;5136280;27;20049;-64
2023/10/23 04:44:26;;;;;;;7.57;3.15;;;;;;;18.44;65.97;100304.38;5136140;27;20043;-63
2023/10/23 04:46:55;;;;;;;5.28;3.15;;;;;;;18.44;66.34;100297.13;5135861;27;20051;-64
2023/10/23 04:49:25;;;;;;;5.22;3.10;;;;;;;18.42;65.95;100300.94;5134909;27;20066;-64
2023/10/23 04:51:53;;;;;;;4.47;2.80;;;;;;;18.42;66.37;100295.53;5136114;27;20498;-64
2023/10/23 04:54:21;;;;;;;4.93;3.10;;;;;;;18.41;66.46;100307.34;5135958;27;20051;-64
2023/10/23 04:56:52;;;;;;;4.65;2.95;;;;;;;18.42;66.48;100309.03;5135820;27;20039;-64
2023/10/23 04:59:23;;;;;;;5.35;3.10;;;;;;;18.40;66.46;100300.25;5135685;27;20039;-64
2023/10/23 05:01:52;;;;;;;5.45;3.00;;;;;;;18.41;66.31;100296.53;5135899;27;20044;-64
2023/10/23 05:04:24;;;;;;;14.43;3.30;;;;;;;18.40;66.12;100300.25;5135845;27;20047;-64
2023/10/23 05:06:56;;;;;;;5.18;2.80;;;;;;;18.39;66.32;100299.38;5135661;27;20047;-64
2023/10/23 05:09:24;;;;;;;5.13;2.92;;;;;;;18.39;66.40;100301.25;5134444;27;20461;-64
2023/10/23 05:11:54;;;;;;;5.05;3.00;;;;;;;18.39;66.52;100309.34;5135456;27;20043;-64
2023/10/23 05:14:22;;;;;;;4.93;3.00;;;;;;;18.38;66.02;100304.94;5135246;27;20062;-64
2023/10/23 05:16:51;;;;;;;4.38;2.65;;;;;;;18.37;66.34;100306.78;5135526;27;20055;-64
2023/10/23 05:19:19;;;;;;;6.10;2.78;;;;;;;18.38;66.21;100310.34;5135486;27;20092;-64
2023/10/23 05:21:48;;;;;;;4.53;2.83;;;;;;;18.37;66.07;100311.34;5135397;27;20077;-64
2023/10/23 05:24:18;;;;;;;5.68;3.42;;;;;;;18.36;66.31;100306.94;5135274;27;20047;-64
2023/10/23 05:26:49;;;;;;;5.40;3.08;;;;;;;18.34;66.00;100300.81;5134991;27;20520;-63
2023/10/23 05:29:18;;;;;;;5.07;3.10;;;;;;;18.35;66.33;100310.63;5135478;27;20130;-64
2023/10/23 05:31:46;;;;;;;5.53;3.20;;;;;;;18.35;66.31;100308.78;5135048;27;20039;-64
2023/10/23 05:34:16;;;;;;;4.97;3.10;;;;;;;18.35;66.33;100307.94;5134422;27;20213;-65
2023/10/23 05:36:44;;;;;;;5.30;3.15;;;;;;;18.35;66.37;100313.31;5133667;27;20043;-64
2023/10/23 05:39:13;;;;;;;5.03;3.10;;;;;;;18.34;66.37;100317.88;5134842;27;20047;-64
2023/10/23 05:41:45;;;;;;;6.60;3.00;;;;;;;18.35;66.06;100326.81;5135256;27;20050;-64
2023/10/23 05:44:13;;;;;;;4.72;3.17;;;;;;;18.35;66.10;100326.81;5134573;27;20047;-64
2023/10/23 05:46:45;;;;;;;5.22;3.10;;;;;;;18.35;66.44;100333.09;5134860;27;20043;-65
2023/10/23 05:49:14;;;;;;;5.97;3.28;;;;;;;18.35;66.07;100343.03;5134794;27;20434;-64
2023/10/23 05:51:42;;;;;;;5.07;2.78;;;;;;;18.33;66.14;100332.34;5134602;27;20047;-64
2023/10/23 05:54:14;;;;;;;5.82;3.13;;;;;;;18.35;66.35;100340.34;5134805;27;20051;-64
2023/10/23 05:56:49;;;;;;;5.38;3.08;;;;;;;18.33;66.50;100343.13;5134777;27;20520;-64
2023/10/23 05:59:18;;;;;;;4.75;3.20;;;;;;;18.34;66.48;100344.03;5134584;27;20122;-63
2023/10/23 06:01:49;;;;;;;5.07;2.80;;;;;;;18.33;66.44;100339.59;5134556;27;20039;-64
2023/10/23 06:04:17;;;;;;;4.55;2.80;;;;;;;18.33;66.46;100343.13;5133044;27;20039;-64
2023/10/23 06:06:46;;;;;;;5.55;3.10;;;;;;;18.34;66.41;100344.03;5134566;27;20125;-63
2023/10/23 06:09:16;;;;;;;5.40;3.10;;;;;;;18.33;66.09;100342.28;5134430;27;20046;-64
2023/10/23 06:11:45;;;;;;;5.60;3.47;;;;;;;18.34;66.43;100358.38;5134368;27;20091;-63
2023/10/23 06:14:14;;;;;;;4.72;2.88;;;;;;;18.34;66.34;100363.78;5134148;27;20043;-64
2023/10/23 06:16:42;;;;;;;4.80;3.00;;;;;;;18.34;66.43;100357.53;5133993;27;20556;-63
2023/10/23 06:19:11;;;;;;;5.60;3.10;;;;;;;18.33;66.19;100364.75;5134078;27;20043;-64
2023/10/23 06:21:43;;;;;;;4.88;3.10;;;;;;;18.34;66.35;100361.09;5134235;27;20039;-63
2023/10/23 06:24:11;;;;;;;5.35;3.35;;;;;;;18.34;66.18;100371.88;5134097;27;20047;-64
2023/10/23 06:26:39;;;;;;;6.13;3.20;;;;;;;18.34;66.13;100382.69;5133862;27;20051;-63
2023/10/23 06:29:10;;;;;;;4.80;2.83;;;;;;;18.34;65.95;100382.69;5132701;27;20043;-63
2023/10/23 06:31:40;;;;;;;5.15;2.95;;;;;;;18.35;65.95;100378.13;5133828;27;20133;-64
2023/10/23 06:34:09;;;;;;;6.07;3.28;;;;;;;18.33;65.98;100380.94;5133911;27;20047;-64
2023/10/23 06:36:41;;;;;;;5.80;3.10;;;;;;;18.34;66.13;100382.69;5133858;27;20051;-63
2023/10/23 06:39:12;;;;;;;5.28;3.17;;;;;;;18.35;65.83;100378.13;5133814;27;20070;-64
2023/10/23 06:41:41;;;;;;;5.55;3.33;;;;;;;18.35;66.21;100380.84;5133760;27;20039;-64
2023/10/23 06:44:09;;;;;;;5.00;3.13;;;;;;;18.36;65.94;100377.13;5133069;27;20044;-63
2023/10/23 06:46:42;;;;;;;5.20;3.20;;;;;;;18.35;66.24;100373.59;5132814;27;20050;-63
2023/10/23 06:49:11;;;;;;;5.35;3.30;;;;;;;18.36;65.66;100379.84;5133705;27;20505;-63
2023/10/23 06:51:39;;;;;;;5.75;3.20;;;;;;;18.36;65.95;100369.03;5133621;27;20453;-63
2023/10/23 06:54:08;;;;;;;4.57;2.90;;;;;;;18.37;65.91;100370.75;5133417;27;20069;-63
2023/10/23 06:56:37;;;;;;;5.07;3.15;;;;;;;18.38;65.69;100364.34;5133512;27;20049;-63
2023/10/23 06:59:05;;;;;;;5.55;3.30;;;;;;;18.37;65.71;100362.63;5132367;27;20070;-62
2023/10/23 07:01:34;;;;;;;5.03;3.00;;;;;;;18.38;65.71;100364.34;5133492;27;20403;-63
2023/10/23 07:04:13;;;;;;;5.20;3.20;;;;;;;18.37;65.63;100360.78;5133707;27;20082;-63
2023/10/23 07:06:43;;;;;;;5.00;2.92;;;;;;;18.38;65.78;100364.34;5133245;27;20043;-64
2023/10/23 07:09:11;;;;;;;5.10;2.85;;;;;;;18.40;65.38;100365.91;5133111;27;20047;-65
2023/10/23 07:11:40;;;;;;;5.18;3.17;;;;;;;18.41;65.43;100377.56;5133158;27;20043;-63
2023/10/23 07:14:08;;;;;;;5.25;3.00;;;;;;;18.41;65.29;100372.16;5133269;27;20043;-62
2023/10/23 07:16:37;;;;;;;5.03;3.08;;;;;;;18.43;65.56;100380.97;5133123;27;20117;-63
2023/10/23 07:19:06;;;;;;;4.78;3.03;;;;;;;18.42;65.58;100379.25;5133166;27;20047;-63
2023/10/23 07:21:39;;;;;;;6.00;3.05;;;;;;;18.44;65.76;100375.44;5132894;27;20039;-63
2023/10/23 07:24:10;;;;;;;5.85;3.08;;;;;;;18.45;65.69;100368.19;5132943;27;20571;-64
2023/10/23 07:26:39;;;;;;;5.30;3.28;;;;;;;18.46;65.71;100364.50;5132667;27;20489;-64
2023/10/23 07:29:08;;;;;;;5.95;3.25;;;;;;;18.46;65.42;100365.34;5131734;27;20047;-64
2023/10/23 07:31:37;;;;;;;4.78;3.05;;;;;;;18.47;65.64;100371.59;5131576;27;20515;-64
2023/10/23 07:34:09;;;;;;;5.00;3.07;;;;;;;18.47;65.66;100374.31;5132847;27;20077;-63
2023/10/23 07:36:39;;;;;;;5.78;3.10;;;;;;;18.49;65.53;100380.41;5132554;27;20047;-63
2023/10/23 07:39:08;;;;;;;4.50;2.72;;;;;;;18.48;65.53;100386.81;5132785;27;20047;-63
2023/10/23 07:41:37;;;;;;;5.35;2.80;;;;;;;18.46;65.79;100380.72;5132834;27;20043;-63
2023/10/23 07:44:05;;;;;;;4.93;3.10;;;;;;;18.48;65.99;100384.97;5132895;27;20047;-63
2023/10/23 07:46:35;;;;;;;5.70;2.83;;;;;;;18.48;65.68;100384.97;5132673;27;20503;-63
2023/10/23 07:49:03;;;;;;;4.75;2.88;;;;;;;18.49;65.62;100392.06;5132794;27;20054;-63
2023/10/23 07:51:32;;;;;;;5.72;2.92;;;;;;;18.50;65.53;100390.22;5132743;27;20496;-63
2023/10/23 07:54:03;;;;;;;5.40;2.90;;;;;;;18.49;65.46;100385.81;5132825;27;20044;-62
2023/10/23 07:56:31;;;;;;;5.53;2.95;;;;;;;18.51;65.56;100391.94;5134239;27;20051;-62
2023/10/23 07:59:02;;;;;;;6.03;3.03;;;;;;;18.51;65.87;100389.22;5136929;27;20121;-63
2023/10/23 08:01:30;;;;;;;4.38;3.05;;;;;;;18.52;66.01;100399.03;5136904;27;20047;-64
2023/10/23 08:03:59;;;;;;;5.95;3.10;;;;;;;18.52;65.70;100399.88;5137045;27;20047;-63
2023/10/23 08:06:30;;;;;;;4.85;2.83;;;;;;;18.52;65.70;100401.72;5136845;27;20052;-64
2023/10/23 08:08:59;;;;;;;5.00;2.92;;;;;;;18.52;65.85;100396.34;5135646;27;20043;-63
2023/10/23 08:11:31;;;;;;;5.03;2.60;;;;;;;18.53;65.65;100387.25;5136703;27;20515;-63
2023/10/23 08:14:00;;;;;;;5.03;2.60;;;;;;;18.53;66.00;100387.25;5136552;27;20054;-63
2023/10/23 08:16:28;;;;;;;4.78;2.80;;;;;;;18.54;65.63;100391.66;5136632;27;20051;-63
2023/10/23 08:18:58;;;;;;;4.25;2.60;;;;;;;18.53;65.91;100384.56;5136651;27;20051;-64
2023/10/23 08:21:28;;;;;;;5.20;3.03;;;;;;;18.52;65.72;100374.72;5136345;27;20047;-64
2023/10/23 08:23:56;;;;;;;4.68;2.75;;;;;;;18.54;65.49;100380.88;5136421;27;20043;-64
2023/10/23 08:26:25;;;;;;;5.13;2.80;;;;;;;18.55;66.53;100379.88;5135810;27;20069;-64
2023/10/23 08:30:51;;;;;;;14.23;4.15;;;;;;;18.75;67.28;100380.78;5106174;27;1306390;-66
2023/10/23 08:33:19;;;;;;;14.60;3.70;;;;;;;18.74;66.88;100379.91;5130244;28;20043;-63
2023/10/23 08:35:48;;;;;;;45.00;6.35;;;;;;;18.74;67.39;100377.22;5130255;28;20109;-66
2023/10/23 08:38:18;;;;;;;29.02;5.20;;;;;;;18.76;67.48;100380.63;5130130;28;20043;-65
2023/10/23 08:40:48;;;;;;;24.10;4.22;;;;;;;18.80;67.44;100383.88;5130054;28;20078;-66
2023/10/23 08:43:16;;;;;;;20.90;4.35;;;;;;;18.82;68.02;100377.38;5129781;28;20086;-65
2023/10/23 08:45:48;;;;;;;20.58;4.55;;;;;;;18.82;68.10;100374.66;5129847;28;20138;-65
2023/10/23 08:48:23;;;;;;;18.17;4.10;;;;;;;18.83;68.09;100365.56;5129999;28;20398;-72
2023/10/23 08:50:52;;;;;;;30.27;4.32;;;;;;;18.84;68.23;100361.84;5129706;28;20047;-69
2023/10/23 08:53:23;;;;;;;24.83;5.07;;;;;;;18.87;68.72;100364.25;5111689;28;20043;-64
2023/10/23 08:55:52;;;;;;;25.98;5.10;;;;;;;18.90;68.27;100356.84;5129545;28;20472;-62
2023/10/23 08:58:22;;;;;;;30.63;4.72;;;;;;;18.97;69.13;100363.41;5129588;28;20500;-63
2023/10/23 09:00:50;;;;;;;27.38;4.38;;;;;;;18.99;69.09;100370.38;5129685;28;20051;-63
2023/10/23 09:03:22;;;;;;;22.05;4.70;;;;;;;18.99;68.69;100372.22;5129510;28;20468;-62
2023/10/23 09:06:10;;;;;;;40.67;5.80;;;;;;;19.04;69.33;100376.22;5129338;28;20050;-62
2023/10/23 09:08:39;;;;;;;28.17;5.60;;;;;;;19.07;69.59;100364.25;5129547;28;20059;-66
2023/10/23 09:11:07;;;;;;;52.72;6.97;;;;;;;19.65;68.08;100377.69;5111268;28;20043;-65
2023/10/23 09:13:40;;;;;;;34.95;6.57;;;;;;;19.62;68.35;100383.41;5129362;28;20484;-69
2023/10/23 09:16:09;;;;;;;34.57;5.90;;;;;;;19.54;68.14;100386.78;5129263;28;20039;-67
2023/10/23 09:18:49;;;;;;;27.85;5.32;;;;;;;19.49;67.53;100380.09;5129026;28;20082;-67
2023/10/23 09:21:17;;;;;;;24.35;5.38;;;;;;;19.47;67.53;100376.69;5127445;28;20050;-68
2023/10/23 09:23:51;;;;;;;20.92;5.28;;;;;;;19.43;67.37;100387.81;5128929;28;20396;-68
2023/10/23 09:26:23;;;;;;;16.13;4.47;;;;;;;19.41;67.24;100379.00;5128269;28;20085;-70
2023/10/23 09:28:52;;;;;;;25.23;4.85;;;;;;;19.41;67.25;100387.13;5128683;27;20059;-70
2023/10/23 09:31:22;;;;;;;17.92;4.38;;;;;;;19.41;67.22;100384.41;5128252;28;20092;-70
2023/10/23 09:33:52;;;;;;;17.58;4.60;;;;;;;19.45;67.14;100383.09;5127997;28;20051;-68
2023/10/23 09:36:21;;;;;;;16.20;4.03;;;;;;;19.47;67.13;100374.84;5128445;28;20154;-68
2023/10/23 09:39:03;;;;;;;16.38;4.10;;;;;;;19.55;66.56;100363.28;5128274;28;20476;-67
2023/10/23 09:41:32;;;;;;;22.42;4.85;;;;;;;19.62;66.29;100369.88;5118803;28;20082;-64
2023/10/23 09:44:03;;;;;;;20.13;4.38;;;;;;;19.70;66.02;100362.72;5114510;28;20055;-65
2023/10/23 09:46:32;;;;;;;18.25;4.57;;;;;;;19.81;66.05;100355.41;5113432;28;20098;-66
2023/10/23 09:49:03;;;;;;;18.90;4.53;;;;;;;19.90;65.74;100358.06;5114527;28;20050;-66
2023/10/23 09:51:39;;;;;;;16.33;4.78;;;;;;;19.97;65.52;100363.72;5114381;28;20065;-65
2023/10/23 09:54:14;;;;;;;16.13;4.60;;;;;;;20.07;65.07;100363.66;5114578;28;20044;-67
2023/10/23 09:56:48;;;;;;;11.43;4.75;;;;;;;20.17;65.20;100350.94;5115042;28;20139;-67
2023/10/23 09:59:18;;;;;;;12.82;4.10;;;;;;;20.18;65.47;100355.38;5113788;28;20043;-67
2023/10/23 10:01:50;;;;;;;9.10;4.35;;;;;;;20.18;66.04;100360.78;5114859;28;20039;-67
2023/10/23 10:04:29;;;;;;;16.33;4.82;;;;;;;20.18;66.39;100361.63;5114785;28;20435;-67
2023/10/23 10:07:08;;;;;;;15.48;4.43;;;;;;;20.26;66.38;100355.44;5114596;28;20487;-68
2023/10/23 10:09:38;;;;;;;11.32;3.75;;;;;;;20.35;66.07;100351.81;5112930;28;20060;-67
2023/10/23 10:12:07;;;;;;;11.52;4.18;;;;;;;20.40;65.49;100348.66;5114363;28;20130;-68
2023/10/23 10:14:37;;;;;;;19.33;4.25;;;;;;;20.43;65.07;100351.09;5114233;28;20043;-68
2023/10/23 10:17:09;;;;;;;12.40;4.28;;;;;;;20.46;65.05;100353.47;5114052;28;20047;-68
2023/10/23 10:19:45;;;;;;;12.95;3.92;;;;;;;20.46;64.95;100343.53;5113991;28;20151;-67
2023/10/23 10:22:21;;;;;;;13.45;3.78;;;;;;;20.47;64.65;100338.97;5114066;28;20058;-68
2023/10/23 10:24:53;;;;;;;12.25;3.88;;;;;;;20.54;64.16;100345.44;5114113;28;20114;-68
2023/10/23 10:27:21;;;;;;;14.38;3.50;;;;;;;20.64;63.58;100339.94;5095764;28;20047;-67
2023/10/23 10:29:51;;;;;;;15.88;3.55;;;;;;;20.70;63.94;100342.06;5113245;28;20056;-66
2023/10/23 10:32:20;;;;;;;12.10;3.40;;;;;;;20.76;62.93;100333.31;5114012;28;20051;-65
2023/10/23 10:34:54;;;;;;;9.10;3.30;;;;;;;20.83;62.49;100335.22;5113781;28;20082;-64
2023/10/23 10:37:28;;;;;;;12.27;3.55;;;;;;;20.82;62.65;100335.38;5113889;28;20051;-67
2023/10/23 10:40:08;;;;;;;12.90;3.67;;;;;;;20.89;62.51;100322.91;5113204;28;20048;-70
2023/10/23 10:42:40;;;;;;;14.57;3.60;;;;;;;20.91;63.25;100326.31;5113622;28;20507;-69
2023/10/23 10:45:14;;;;;;;11.85;4.20;;;;;;;21.03;62.51;100325.03;5113786;28;20108;-67
2023/10/23 10:47:45;;;;;;;15.55;3.70;;;;;;;21.06;61.47;100322.03;5096231;28;20059;-67
2023/10/23 10:50:34;;;;;;;11.52;3.42;;;;;;;21.18;60.52;100324.47;5112791;28;20086;-66
2023/10/23 10:53:04;;;;;;;12.10;4.03;;;;;;;21.26;60.58;100325.44;5112095;28;20058;-68
2023/10/23 10:55:33;;;;;;;16.00;3.95;;;;;;;21.30;60.64;100326.78;5113841;28;20108;-67
2023/10/23 10:58:06;;;;;;;10.38;3.28;;;;;;;21.35;60.44;100318.19;5113761;28;20048;-69
2023/10/23 11:00:37;;;;;;;8.13;3.42;;;;;;;21.42;60.54;100320.13;5113764;28;20047;-66
2023/10/23 11:03:07;;;;;;;11.48;3.78;;;;;;;21.52;60.47;100320.00;5113472;28;20040;-69
2023/10/23 11:05:38;;;;;;;11.65;3.35;;;;;;;21.57;60.38;100322.22;5112779;28;20044;-69
2023/10/23 11:08:09;;;;;;;17.60;3.88;;;;;;;21.62;60.36;100328.88;5112690;28;20432;-69
2023/10/23 11:10:37;;;;;;;16.60;4.03;;;;;;;21.60;60.27;100333.59;5113364;28;20069;-69
2023/10/23 11:13:08;;;;;;;10.95;3.47;;;;;;;21.58;60.34;100323.91;5113326;28;20047;-69
2023/10/23 11:15:39;;;;;;;11.95;3.53;;;;;;;21.63;59.97;100319.72;5113092;28;20173;-69
2023/10/23 11:18:07;;;;;;;8.05;3.33;;;;;;;21.67;60.21;100312.94;5113156;28;20548;-69
2023/10/23 11:20:37;;;;;;;13.93;3.78;;;;;;;21.74;59.87;100306.88;5113331;28;20047;-69
2023/10/23 11:23:09;;;;;;;9.30;3.22;;;;;;;21.79;59.77;100310.78;5113064;28;20043;-69
2023/10/23 11:25:37;;;;;;;12.75;3.05;;;;;;;21.84;59.79;100310.31;5112904;28;20127;-69
2023/10/23 11:28:08;;;;;;;11.35;3.10;;;;;;;21.88;59.67;100307.09;5112903;28;20131;-69
2023/10/23 11:30:47;;;;;;;12.80;2.85;;;;;;;21.91;59.68;100303.22;5112684;28;20055;-69
2023/10/23 11:33:16;;;;;;;8.85;2.97;;;;;;;21.98;59.31;100298.81;5112923;28;20427;-69
2023/10/23 11:35:48;;;;;;;10.48;3.30;;;;;;;22.02;59.46;100283.06;5112930;28;20086;-69
2023/10/23 11:38:17;;;;;;;8.55;3.10;;;;;;;22.06;59.10;100277.09;5112844;28;20394;-69